sensor_id;sensor_type;location;lat;lon;timestamp;P1;durP1;ratioP1;P2;durP2;ratioP2
78484;SDS011;67773;50.806;8.776;2023-10-08T00:00:44;5.95;;;2.83;;
78484;SDS011;67773;50.806;8.776;2023-10-08T00:03:18;6.63;;;2.65;;
78484;SDS011;67773;50.806;8.776;2023-10-08T00:05:45;7.28;;;2.92;;
78484;SDS011;67773;50.806;8.776;2023-10-08T00:08:11;6.82;;;3.08;;
78484;SDS011;67773;50.806;8.776;2023-10-08T00:10:36;6.55;;;2.90;;
78484;SDS011;67773;50.806;8.776;2023-10-08T00:13:05;5.53;;;2.40;;
78484;SDS011;67773;50.806;8.776;2023-10-08T00:15:34;5.63;;;2.55;;
78484;SDS011;67773;50.806;8.776;2023-10-08T00:18:01;6.50;;;2.80;;
78484;SDS011;67773;50.806;8.776;2023-10-08T00:20:27;8.20;;;3.30;;
78484;SDS011;67773;50.806;8.776;2023-10-08T00:23:01;9.25;;;5.57;;
78484;SDS011;67773;50.806;8.776;2023-10-08T00:25:31;7.82;;;3.20;;
78484;SDS011;67773;50.806;8.776;2023-10-08T00:27:58;7.43;;;3.80;;
78484;SDS011;67773;50.806;8.776;2023-10-08T00:30:23;8.43;;;3.33;;
78484;SDS011;67773;50.806;8.776;2023-10-08T00:32:49;7.17;;;4.23;;
78484;SDS011;67773;50.806;8.776;2023-10-08T00:35:14;6.93;;;2.40;;
78484;SDS011;67773;50.806;8.776;2023-10-08T00:37:45;5.93;;;2.40;;
78484;SDS011;67773;50.806;8.776;2023-10-08T00:40:11;7.38;;;2.63;;
78484;SDS011;67773;50.806;8.776;2023-10-08T00:42:38;7.20;;;2.97;;
78484;SDS011;67773;50.806;8.776;2023-10-08T00:45:10;15.93;;;8.25;;
78484;SDS011;67773;50.806;8.776;2023-10-08T00:47:38;8.07;;;3.97;;
78484;SDS011;67773;50.806;8.776;2023-10-08T00:50:08;9.50;;;4.10;;
78484;SDS011;67773;50.806;8.776;2023-10-08T00:52:35;10.95;;;5.15;;
78484;SDS011;67773;50.806;8.776;2023-10-08T00:55:10;7.03;;;3.30;;
78484;SDS011;67773;50.806;8.776;2023-10-08T00:57:45;7.28;;;3.08;;
78484;SDS011;67773;50.806;8.776;2023-10-08T01:00:14;5.75;;;2.40;;
78484;SDS011;67773;50.806;8.776;2023-10-08T01:02:56;6.32;;;2.40;;
78484;SDS011;67773;50.806;8.776;2023-10-08T01:05:26;7.75;;;2.78;;
78484;SDS011;67773;50.806;8.776;2023-10-08T01:08:08;6.07;;;3.03;;
78484;SDS011;67773;50.806;8.776;2023-10-08T01:10:37;4.32;;;2.20;;
78484;SDS011;67773;50.806;8.776;2023-10-08T01:13:03;9.02;;;2.70;;
78484;SDS011;67773;50.806;8.776;2023-10-08T01:15:37;4.85;;;2.47;;
78484;SDS011;67773;50.806;8.776;2023-10-08T01:18:02;4.17;;;2.10;;
78484;SDS011;67773;50.806;8.776;2023-10-08T01:20:30;6.53;;;2.90;;
78484;SDS011;67773;50.806;8.776;2023-10-08T01:23:17;23.48;;;12.25;;
78484;SDS011;67773;50.806;8.776;2023-10-08T01:25:45;8.52;;;3.05;;
78484;SDS011;67773;50.806;8.776;2023-10-08T01:28:22;15.70;;;6.63;;
78484;SDS011;67773;50.806;8.776;2023-10-08T01:30:52;6.65;;;3.00;;
78484;SDS011;67773;50.806;8.776;2023-10-08T01:33:19;6.82;;;3.15;;
78484;SDS011;67773;50.806;8.776;2023-10-08T01:35:46;10.75;;;4.88;;
78484;SDS011;67773;50.806;8.776;2023-10-08T01:38:13;8.35;;;3.72;;
78484;SDS011;67773;50.806;8.776;2023-10-08T01:40:40;25.65;;;13.18;;
78484;SDS011;67773;50.806;8.776;2023-10-08T01:43:06;16.67;;;8.18;;
78484;SDS011;67773;50.806;8.776;2023-10-08T01:45:35;6.82;;;3.30;;
78484;SDS011;67773;50.806;8.776;2023-10-08T01:48:01;9.60;;;5.20;;
78484;SDS011;67773;50.806;8.776;2023-10-08T01:50:26;7.23;;;3.10;;
78484;SDS011;67773;50.806;8.776;2023-10-08T01:52:54;5.75;;;2.53;;
78484;SDS011;67773;50.806;8.776;2023-10-08T01:55:20;6.50;;;3.15;;
78484;SDS011;67773;50.806;8.776;2023-10-08T01:57:47;7.75;;;2.85;;
78484;SDS011;67773;50.806;8.776;2023-10-08T02:00:18;7.55;;;3.08;;
78484;SDS011;67773;50.806;8.776;2023-10-08T02:02:51;7.13;;;2.78;;
78484;SDS011;67773;50.806;8.776;2023-10-08T02:05:18;7.70;;;2.78;;
78484;SDS011;67773;50.806;8.776;2023-10-08T02:07:44;5.40;;;2.70;;
78484;SDS011;67773;50.806;8.776;2023-10-08T02:10:10;6.72;;;2.90;;
78484;SDS011;67773;50.806;8.776;2023-10-08T02:12:38;6.47;;;2.75;;
78484;SDS011;67773;50.806;8.776;2023-10-08T02:15:04;4.88;;;3.30;;
78484;SDS011;67773;50.806;8.776;2023-10-08T02:17:31;5.25;;;2.83;;
78484;SDS011;67773;50.806;8.776;2023-10-08T02:19:57;6.85;;;3.03;;
78484;SDS011;67773;50.806;8.776;2023-10-08T02:22:22;6.63;;;2.50;;
78484;SDS011;67773;50.806;8.776;2023-10-08T02:24:48;7.33;;;3.07;;
78484;SDS011;67773;50.806;8.776;2023-10-08T02:27:15;8.68;;;2.72;;
78484;SDS011;67773;50.806;8.776;2023-10-08T02:29:41;5.38;;;2.80;;
78484;SDS011;67773;50.806;8.776;2023-10-08T02:32:07;6.32;;;2.90;;
78484;SDS011;67773;50.806;8.776;2023-10-08T02:34:32;5.68;;;3.00;;
78484;SDS011;67773;50.806;8.776;2023-10-08T02:36:58;9.50;;;2.80;;
78484;SDS011;67773;50.806;8.776;2023-10-08T02:39:24;4.97;;;2.72;;
78484;SDS011;67773;50.806;8.776;2023-10-08T02:41:51;6.65;;;2.90;;
78484;SDS011;67773;50.806;8.776;2023-10-08T02:44:18;5.60;;;2.70;;
78484;SDS011;67773;50.806;8.776;2023-10-08T02:46:45;7.07;;;3.22;;
78484;SDS011;67773;50.806;8.776;2023-10-08T02:49:12;8.68;;;2.85;;
78484;SDS011;67773;50.806;8.776;2023-10-08T02:51:42;6.32;;;3.17;;
78484;SDS011;67773;50.806;8.776;2023-10-08T02:54:09;6.63;;;3.35;;
78484;SDS011;67773;50.806;8.776;2023-10-08T02:56:49;5.97;;;3.53;;
78484;SDS011;67773;50.806;8.776;2023-10-08T02:59:19;9.55;;;3.42;;
78484;SDS011;67773;50.806;8.776;2023-10-08T03:01:46;5.90;;;2.78;;
78484;SDS011;67773;50.806;8.776;2023-10-08T03:04:14;8.23;;;3.80;;
78484;SDS011;67773;50.806;8.776;2023-10-08T03:06:42;7.38;;;3.50;;
78484;SDS011;67773;50.806;8.776;2023-10-08T03:09:08;8.77;;;3.17;;
78484;SDS011;67773;50.806;8.776;2023-10-08T03:11:33;8.33;;;3.73;;
78484;SDS011;67773;50.806;8.776;2023-10-08T03:14:01;5.47;;;3.22;;
78484;SDS011;67773;50.806;8.776;2023-10-08T03:16:26;11.20;;;3.47;;
78484;SDS011;67773;50.806;8.776;2023-10-08T03:19:00;8.60;;;3.42;;
78484;SDS011;67773;50.806;8.776;2023-10-08T03:21:26;11.63;;;3.35;;
78484;SDS011;67773;50.806;8.776;2023-10-08T03:24:03;7.25;;;3.28;;
78484;SDS011;67773;50.806;8.776;2023-10-08T03:26:37;6.40;;;3.47;;
78484;SDS011;67773;50.806;8.776;2023-10-08T03:29:05;8.55;;;3.20;;
78484;SDS011;67773;50.806;8.776;2023-10-08T03:31:33;7.45;;;3.13;;
78484;SDS011;67773;50.806;8.776;2023-10-08T03:34:14;6.28;;;3.28;;
78484;SDS011;67773;50.806;8.776;2023-10-08T03:36:44;6.82;;;3.58;;
78484;SDS011;67773;50.806;8.776;2023-10-08T03:39:11;7.25;;;3.47;;
78484;SDS011;67773;50.806;8.776;2023-10-08T03:41:39;6.47;;;3.58;;
78484;SDS011;67773;50.806;8.776;2023-10-08T03:44:07;7.72;;;3.55;;
78484;SDS011;67773;50.806;8.776;2023-10-08T03:46:39;7.70;;;3.40;;
78484;SDS011;67773;50.806;8.776;2023-10-08T03:49:11;8.27;;;3.28;;
78484;SDS011;67773;50.806;8.776;2023-10-08T03:51:57;6.70;;;3.38;;
78484;SDS011;67773;50.806;8.776;2023-10-08T03:54:23;7.60;;;3.20;;
78484;SDS011;67773;50.806;8.776;2023-10-08T03:56:55;7.80;;;3.42;;
78484;SDS011;67773;50.806;8.776;2023-10-08T03:59:21;7.18;;;3.33;;
78484;SDS011;67773;50.806;8.776;2023-10-08T04:02:05;8.95;;;3.65;;
78484;SDS011;67773;50.806;8.776;2023-10-08T04:04:47;6.20;;;3.42;;
78484;SDS011;67773;50.806;8.776;2023-10-08T04:07:22;8.07;;;3.75;;
78484;SDS011;67773;50.806;8.776;2023-10-08T04:09:58;6.88;;;3.95;;
78484;SDS011;67773;50.806;8.776;2023-10-08T04:12:33;6.43;;;3.95;;
78484;SDS011;67773;50.806;8.776;2023-10-08T04:15:00;7.95;;;3.80;;
78484;SDS011;67773;50.806;8.776;2023-10-08T04:17:26;7.70;;;3.97;;
78484;SDS011;67773;50.806;8.776;2023-10-08T04:19:52;8.27;;;3.50;;
78484;SDS011;67773;50.806;8.776;2023-10-08T04:22:17;7.77;;;3.67;;
78484;SDS011;67773;50.806;8.776;2023-10-08T04:24:43;8.00;;;3.67;;
78484;SDS011;67773;50.806;8.776;2023-10-08T04:27:09;10.73;;;4.32;;
78484;SDS011;67773;50.806;8.776;2023-10-08T04:29:35;8.32;;;3.60;;
78484;SDS011;67773;50.806;8.776;2023-10-08T04:32:02;7.68;;;3.65;;
78484;SDS011;67773;50.806;8.776;2023-10-08T04:34:42;5.78;;;3.13;;
78484;SDS011;67773;50.806;8.776;2023-10-08T04:37:11;7.30;;;3.58;;
78484;SDS011;67773;50.806;8.776;2023-10-08T04:39:37;7.28;;;3.30;;
78484;SDS011;67773;50.806;8.776;2023-10-08T04:42:05;12.50;;;4.15;;
78484;SDS011;67773;50.806;8.776;2023-10-08T04:44:35;10.40;;;3.67;;
78484;SDS011;67773;50.806;8.776;2023-10-08T04:47:04;10.27;;;3.72;;
78484;SDS011;67773;50.806;8.776;2023-10-08T04:49:30;8.90;;;4.15;;
78484;SDS011;67773;50.806;8.776;2023-10-08T04:52:01;7.28;;;3.53;;
78484;SDS011;67773;50.806;8.776;2023-10-08T04:54:38;8.60;;;3.90;;
78484;SDS011;67773;50.806;8.776;2023-10-08T04:57:05;8.82;;;3.90;;
78484;SDS011;67773;50.806;8.776;2023-10-08T04:59:31;7.97;;;4.07;;
78484;SDS011;67773;50.806;8.776;2023-10-08T05:01:59;7.35;;;3.90;;
78484;SDS011;67773;50.806;8.776;2023-10-08T05:04:43;8.48;;;4.30;;
78484;SDS011;67773;50.806;8.776;2023-10-08T05:07:24;7.90;;;3.60;;
78484;SDS011;67773;50.806;8.776;2023-10-08T05:10:08;7.32;;;3.35;;
78484;SDS011;67773;50.806;8.776;2023-10-08T05:12:48;10.57;;;4.05;;
78484;SDS011;67773;50.806;8.776;2023-10-08T05:15:29;6.03;;;3.65;;
78484;SDS011;67773;50.806;8.776;2023-10-08T05:18:01;6.55;;;3.78;;
78484;SDS011;67773;50.806;8.776;2023-10-08T05:20:49;8.93;;;4.15;;
78484;SDS011;67773;50.806;8.776;2023-10-08T05:23:16;12.65;;;4.22;;
78484;SDS011;67773;50.806;8.776;2023-10-08T05:25:49;6.78;;;3.33;;
78484;SDS011;67773;50.806;8.776;2023-10-08T05:28:33;6.65;;;3.53;;
78484;SDS011;67773;50.806;8.776;2023-10-08T05:31:22;8.35;;;4.35;;
78484;SDS011;67773;50.806;8.776;2023-10-08T05:34:06;8.60;;;4.13;;
78484;SDS011;67773;50.806;8.776;2023-10-08T05:37:01;7.35;;;3.53;;
78484;SDS011;67773;50.806;8.776;2023-10-08T05:39:29;6.80;;;3.47;;
78484;SDS011;67773;50.806;8.776;2023-10-08T05:42:05;9.20;;;3.90;;
78484;SDS011;67773;50.806;8.776;2023-10-08T05:44:45;8.85;;;3.63;;
78484;SDS011;67773;50.806;8.776;2023-10-08T05:47:14;6.90;;;3.38;;
78484;SDS011;67773;50.806;8.776;2023-10-08T05:49:39;7.32;;;4.15;;
78484;SDS011;67773;50.806;8.776;2023-10-08T05:52:18;9.20;;;4.15;;
78484;SDS011;67773;50.806;8.776;2023-10-08T05:54:51;8.10;;;4.15;;
78484;SDS011;67773;50.806;8.776;2023-10-08T05:57:34;8.73;;;4.13;;
78484;SDS011;67773;50.806;8.776;2023-10-08T06:00:11;5.93;;;3.65;;
78484;SDS011;67773;50.806;8.776;2023-10-08T06:02:40;9.43;;;4.28;;
78484;SDS011;67773;50.806;8.776;2023-10-08T06:05:10;10.70;;;4.20;;
78484;SDS011;67773;50.806;8.776;2023-10-08T06:07:39;9.40;;;4.03;;
78484;SDS011;67773;50.806;8.776;2023-10-08T06:10:15;12.85;;;5.97;;
78484;SDS011;67773;50.806;8.776;2023-10-08T06:15:35;8.30;;;4.40;;
78484;SDS011;67773;50.806;8.776;2023-10-08T06:18:20;7.60;;;4.07;;
78484;SDS011;67773;50.806;8.776;2023-10-08T06:20:52;7.55;;;3.97;;
78484;SDS011;67773;50.806;8.776;2023-10-08T06:23:21;6.97;;;3.78;;
78484;SDS011;67773;50.806;8.776;2023-10-08T06:25:48;9.35;;;3.90;;
78484;SDS011;67773;50.806;8.776;2023-10-08T06:28:32;8.15;;;4.60;;
78484;SDS011;67773;50.806;8.776;2023-10-08T06:31:00;6.75;;;3.65;;
78484;SDS011;67773;50.806;8.776;2023-10-08T06:33:26;6.72;;;3.50;;
78484;SDS011;67773;50.806;8.776;2023-10-08T06:35:55;7.30;;;3.80;;
78484;SDS011;67773;50.806;8.776;2023-10-08T06:38:31;7.57;;;3.92;;
78484;SDS011;67773;50.806;8.776;2023-10-08T06:41:03;9.55;;;4.10;;
78484;SDS011;67773;50.806;8.776;2023-10-08T06:43:40;8.50;;;4.25;;
78484;SDS011;67773;50.806;8.776;2023-10-08T06:46:30;9.75;;;4.32;;
78484;SDS011;67773;50.806;8.776;2023-10-08T06:48:59;9.00;;;5.18;;
78484;SDS011;67773;50.806;8.776;2023-10-08T06:51:25;8.02;;;3.88;;
78484;SDS011;67773;50.806;8.776;2023-10-08T06:53:51;8.32;;;4.03;;
78484;SDS011;67773;50.806;8.776;2023-10-08T06:56:19;10.20;;;4.03;;
78484;SDS011;67773;50.806;8.776;2023-10-08T06:58:45;7.13;;;3.78;;
78484;SDS011;67773;50.806;8.776;2023-10-08T07:01:17;9.38;;;4.50;;
78484;SDS011;67773;50.806;8.776;2023-10-08T07:03:47;8.73;;;4.25;;
78484;SDS011;67773;50.806;8.776;2023-10-08T07:06:16;8.05;;;3.90;;
78484;SDS011;67773;50.806;8.776;2023-10-08T07:08:50;8.05;;;3.80;;
78484;SDS011;67773;50.806;8.776;2023-10-08T07:11:20;7.57;;;4.53;;
78484;SDS011;67773;50.806;8.776;2023-10-08T07:13:46;7.28;;;4.22;;
78484;SDS011;67773;50.806;8.776;2023-10-08T07:16:12;7.68;;;3.90;;
78484;SDS011;67773;50.806;8.776;2023-10-08T07:18:38;9.23;;;4.77;;
78484;SDS011;67773;50.806;8.776;2023-10-08T07:21:03;7.25;;;3.90;;
78484;SDS011;67773;50.806;8.776;2023-10-08T07:23:37;8.43;;;4.28;;
78484;SDS011;67773;50.806;8.776;2023-10-08T07:26:18;10.30;;;4.60;;
78484;SDS011;67773;50.806;8.776;2023-10-08T07:28:48;8.25;;;4.45;;
78484;SDS011;67773;50.806;8.776;2023-10-08T07:31:17;7.63;;;3.92;;
78484;SDS011;67773;50.806;8.776;2023-10-08T07:33:50;9.48;;;4.28;;
78484;SDS011;67773;50.806;8.776;2023-10-08T07:36:23;12.60;;;4.75;;
78484;SDS011;67773;50.806;8.776;2023-10-08T07:38:50;6.63;;;3.90;;
78484;SDS011;67773;50.806;8.776;2023-10-08T07:41:16;9.00;;;4.38;;
78484;SDS011;67773;50.806;8.776;2023-10-08T07:43:44;8.63;;;4.10;;
78484;SDS011;67773;50.806;8.776;2023-10-08T07:46:23;9.75;;;4.80;;
78484;SDS011;67773;50.806;8.776;2023-10-08T07:48:54;11.43;;;5.13;;
78484;SDS011;67773;50.806;8.776;2023-10-08T07:51:20;9.30;;;4.47;;
78484;SDS011;67773;50.806;8.776;2023-10-08T07:53:47;9.93;;;5.20;;
78484;SDS011;67773;50.806;8.776;2023-10-08T07:56:21;8.77;;;4.88;;
78484;SDS011;67773;50.806;8.776;2023-10-08T07:58:53;9.30;;;5.10;;
78484;SDS011;67773;50.806;8.776;2023-10-08T08:01:22;8.25;;;4.70;;
78484;SDS011;67773;50.806;8.776;2023-10-08T08:03:49;8.35;;;4.90;;
78484;SDS011;67773;50.806;8.776;2023-10-08T08:06:15;7.38;;;3.80;;
78484;SDS011;67773;50.806;8.776;2023-10-08T08:08:41;8.35;;;4.13;;
78484;SDS011;67773;50.806;8.776;2023-10-08T08:11:07;8.05;;;4.35;;
78484;SDS011;67773;50.806;8.776;2023-10-08T08:13:42;8.65;;;4.20;;
78484;SDS011;67773;50.806;8.776;2023-10-08T08:16:08;8.65;;;4.68;;
78484;SDS011;67773;50.806;8.776;2023-10-08T08:18:45;9.65;;;4.32;;
78484;SDS011;67773;50.806;8.776;2023-10-08T08:21:12;7.65;;;3.92;;
78484;SDS011;67773;50.806;8.776;2023-10-08T08:23:44;7.60;;;3.90;;
78484;SDS011;67773;50.806;8.776;2023-10-08T08:26:18;11.00;;;4.93;;
78484;SDS011;67773;50.806;8.776;2023-10-08T08:29:05;9.05;;;4.78;;
78484;SDS011;67773;50.806;8.776;2023-10-08T08:31:35;7.50;;;4.82;;
78484;SDS011;67773;50.806;8.776;2023-10-08T08:34:01;8.63;;;4.32;;
78484;SDS011;67773;50.806;8.776;2023-10-08T08:36:28;7.93;;;4.38;;
78484;SDS011;67773;50.806;8.776;2023-10-08T08:38:56;12.10;;;4.57;;
78484;SDS011;67773;50.806;8.776;2023-10-08T08:41:22;7.78;;;4.35;;
78484;SDS011;67773;50.806;8.776;2023-10-08T08:43:51;9.18;;;4.35;;
78484;SDS011;67773;50.806;8.776;2023-10-08T08:46:42;9.45;;;4.45;;
78484;SDS011;67773;50.806;8.776;2023-10-08T08:49:10;8.02;;;4.65;;
78484;SDS011;67773;50.806;8.776;2023-10-08T08:51:38;9.95;;;5.07;;
78484;SDS011;67773;50.806;8.776;2023-10-08T08:54:03;12.07;;;5.50;;
78484;SDS011;67773;50.806;8.776;2023-10-08T08:56:39;9.73;;;4.80;;
78484;SDS011;67773;50.806;8.776;2023-10-08T08:59:08;8.80;;;4.72;;
78484;SDS011;67773;50.806;8.776;2023-10-08T09:01:37;8.93;;;4.50;;
78484;SDS011;67773;50.806;8.776;2023-10-08T09:04:04;10.85;;;5.60;;
78484;SDS011;67773;50.806;8.776;2023-10-08T09:06:35;9.30;;;4.93;;
78484;SDS011;67773;50.806;8.776;2023-10-08T09:09:04;9.50;;;4.70;;
78484;SDS011;67773;50.806;8.776;2023-10-08T09:11:47;9.80;;;5.15;;
78484;SDS011;67773;50.806;8.776;2023-10-08T09:14:16;12.25;;;6.45;;
78484;SDS011;67773;50.806;8.776;2023-10-08T09:16:42;13.50;;;7.07;;
78484;SDS011;67773;50.806;8.776;2023-10-08T09:19:09;11.48;;;4.72;;
78484;SDS011;67773;50.806;8.776;2023-10-08T09:21:40;10.77;;;5.53;;
78484;SDS011;67773;50.806;8.776;2023-10-08T09:24:06;14.50;;;7.70;;
78484;SDS011;67773;50.806;8.776;2023-10-08T09:26:35;14.98;;;6.47;;
78484;SDS011;67773;50.806;8.776;2023-10-08T09:29:04;15.30;;;6.47;;
78484;SDS011;67773;50.806;8.776;2023-10-08T09:31:30;15.10;;;6.70;;
78484;SDS011;67773;50.806;8.776;2023-10-08T09:34:00;10.63;;;5.43;;
78484;SDS011;67773;50.806;8.776;2023-10-08T09:36:28;10.80;;;5.68;;
78484;SDS011;67773;50.806;8.776;2023-10-08T09:39:03;9.40;;;6.10;;
78484;SDS011;67773;50.806;8.776;2023-10-08T09:41:32;8.45;;;3.15;;
78484;SDS011;67773;50.806;8.776;2023-10-08T09:44:00;3.08;;;2.10;;
78484;SDS011;67773;50.806;8.776;2023-10-08T09:46:29;1.85;;;1.10;;
78484;SDS011;67773;50.806;8.776;2023-10-08T09:49:00;1.90;;;0.90;;
78484;SDS011;67773;50.806;8.776;2023-10-08T09:51:27;1.52;;;0.50;;
78484;SDS011;67773;50.806;8.776;2023-10-08T09:56:35;3.25;;;0.90;;
78484;SDS011;67773;50.806;8.776;2023-10-08T09:59:01;1.17;;;0.40;;
78484;SDS011;67773;50.806;8.776;2023-10-08T10:01:27;0.52;;;0.30;;
78484;SDS011;67773;50.806;8.776;2023-10-08T10:03:53;0.60;;;0.40;;
78484;SDS011;67773;50.806;8.776;2023-10-08T10:06:18;1.67;;;0.50;;
78484;SDS011;67773;50.806;8.776;2023-10-08T10:08:44;1.45;;;0.52;;
78484;SDS011;67773;50.806;8.776;2023-10-08T10:11:12;0.47;;;0.30;;
78484;SDS011;67773;50.806;8.776;2023-10-08T10:13:50;0.83;;;0.57;;
78484;SDS011;67773;50.806;8.776;2023-10-08T10:16:17;3.50;;;0.50;;
78484;SDS011;67773;50.806;8.776;2023-10-08T10:18:48;0.70;;;0.40;;
78484;SDS011;67773;50.806;8.776;2023-10-08T10:26:25;5.70;;;0.65;;
78484;SDS011;67773;50.806;8.776;2023-10-08T10:31:34;1.02;;;0.50;;
78484;SDS011;67773;50.806;8.776;2023-10-08T10:34:03;2.70;;;0.65;;
78484;SDS011;67773;50.806;8.776;2023-10-08T10:36:36;1.95;;;0.50;;
78484;SDS011;67773;50.806;8.776;2023-10-08T10:39:04;1.00;;;0.70;;
78484;SDS011;67773;50.806;8.776;2023-10-08T10:41:50;2.17;;;0.50;;
78484;SDS011;67773;50.806;8.776;2023-10-08T10:44:16;1.95;;;0.80;;
78484;SDS011;67773;50.806;8.776;2023-10-08T10:46:42;3.33;;;0.47;;
78484;SDS011;67773;50.806;8.776;2023-10-08T10:49:08;1.42;;;0.50;;
78484;SDS011;67773;50.806;8.776;2023-10-08T10:51:50;4.60;;;0.60;;
78484;SDS011;67773;50.806;8.776;2023-10-08T10:54:23;2.05;;;0.47;;
78484;SDS011;67773;50.806;8.776;2023-10-08T10:56:52;1.40;;;0.60;;
78484;SDS011;67773;50.806;8.776;2023-10-08T10:59:31;1.00;;;0.60;;
78484;SDS011;67773;50.806;8.776;2023-10-08T11:02:03;0.90;;;0.50;;
78484;SDS011;67773;50.806;8.776;2023-10-08T11:04:55;13.82;;;7.55;;
78484;SDS011;67773;50.806;8.776;2023-10-08T11:07:32;2.30;;;0.80;;
78484;SDS011;67773;50.806;8.776;2023-10-08T11:09:59;3.05;;;0.52;;
78484;SDS011;67773;50.806;8.776;2023-10-08T11:12:24;1.95;;;0.70;;
78484;SDS011;67773;50.806;8.776;2023-10-08T11:15:07;1.80;;;0.50;;
78484;SDS011;67773;50.806;8.776;2023-10-08T11:17:40;1.05;;;0.50;;
78484;SDS011;67773;50.806;8.776;2023-10-08T11:20:22;2.33;;;0.73;;
78484;SDS011;67773;50.806;8.776;2023-10-08T11:22:51;3.08;;;0.50;;
78484;SDS011;67773;50.806;8.776;2023-10-08T11:25:22;1.70;;;0.60;;
78484;SDS011;67773;50.806;8.776;2023-10-08T11:27:51;1.80;;;0.60;;
78484;SDS011;67773;50.806;8.776;2023-10-08T11:30:23;1.85;;;0.40;;
78484;SDS011;67773;50.806;8.776;2023-10-08T11:32:49;1.75;;;0.55;;
78484;SDS011;67773;50.806;8.776;2023-10-08T11:35:15;1.95;;;0.40;;
78484;SDS011;67773;50.806;8.776;2023-10-08T11:37:44;2.17;;;0.65;;
78484;SDS011;67773;50.806;8.776;2023-10-08T11:40:22;1.58;;;0.40;;
78484;SDS011;67773;50.806;8.776;2023-10-08T11:42:53;1.35;;;0.80;;
78484;SDS011;67773;50.806;8.776;2023-10-08T11:45:22;0.55;;;0.30;;
78484;SDS011;67773;50.806;8.776;2023-10-08T11:48:03;1.48;;;0.50;;
78484;SDS011;67773;50.806;8.776;2023-10-08T11:50:36;1.50;;;0.60;;
78484;SDS011;67773;50.806;8.776;2023-10-08T11:53:03;1.65;;;0.55;;
78484;SDS011;67773;50.806;8.776;2023-10-08T11:55:31;0.95;;;0.40;;
78484;SDS011;67773;50.806;8.776;2023-10-08T11:58:00;2.67;;;0.43;;
78484;SDS011;67773;50.806;8.776;2023-10-08T12:00:26;4.03;;;0.70;;
78484;SDS011;67773;50.806;8.776;2023-10-08T12:02:52;2.17;;;0.60;;
78484;SDS011;67773;50.806;8.776;2023-10-08T12:05:19;2.05;;;0.50;;
78484;SDS011;67773;50.806;8.776;2023-10-08T12:07:46;0.50;;;0.30;;
78484;SDS011;67773;50.806;8.776;2023-10-08T12:10:12;3.00;;;0.40;;
78484;SDS011;67773;50.806;8.776;2023-10-08T12:12:38;1.52;;;0.43;;
78484;SDS011;67773;50.806;8.776;2023-10-08T12:15:03;1.07;;;0.30;;
78484;SDS011;67773;50.806;8.776;2023-10-08T12:17:29;0.95;;;0.30;;
78484;SDS011;67773;50.806;8.776;2023-10-08T12:20:04;0.88;;;0.50;;
78484;SDS011;67773;50.806;8.776;2023-10-08T12:22:47;2.70;;;0.30;;
78484;SDS011;67773;50.806;8.776;2023-10-08T12:25:14;1.48;;;0.70;;
78484;SDS011;67773;50.806;8.776;2023-10-08T12:27:39;3.03;;;0.30;;
78484;SDS011;67773;50.806;8.776;2023-10-08T12:30:04;1.10;;;0.30;;
78484;SDS011;67773;50.806;8.776;2023-10-08T12:32:35;1.83;;;0.40;;
78484;SDS011;67773;50.806;8.776;2023-10-08T12:35:02;0.80;;;0.20;;
78484;SDS011;67773;50.806;8.776;2023-10-08T12:37:28;1.13;;;0.32;;
78484;SDS011;67773;50.806;8.776;2023-10-08T12:39:55;0.45;;;0.20;;
78484;SDS011;67773;50.806;8.776;2023-10-08T12:42:36;1.27;;;0.28;;
78484;SDS011;67773;50.806;8.776;2023-10-08T12:45:04;1.70;;;0.43;;
78484;SDS011;67773;50.806;8.776;2023-10-08T12:47:37;1.73;;;0.60;;
78484;SDS011;67773;50.806;8.776;2023-10-08T12:50:03;1.00;;;0.30;;
78484;SDS011;67773;50.806;8.776;2023-10-08T12:52:32;3.22;;;0.50;;
78484;SDS011;67773;50.806;8.776;2023-10-08T12:54:59;1.73;;;0.30;;
78484;SDS011;67773;50.806;8.776;2023-10-08T12:57:29;4.63;;;0.50;;
78484;SDS011;67773;50.806;8.776;2023-10-08T12:59:58;1.35;;;0.50;;
78484;SDS011;67773;50.806;8.776;2023-10-08T13:02:24;1.52;;;0.50;;
78484;SDS011;67773;50.806;8.776;2023-10-08T13:04:53;0.95;;;0.40;;
78484;SDS011;67773;50.806;8.776;2023-10-08T13:07:20;1.55;;;0.20;;
78484;SDS011;67773;50.806;8.776;2023-10-08T13:09:47;1.27;;;0.50;;
78484;SDS011;67773;50.806;8.776;2023-10-08T13:12:12;1.38;;;0.30;;
78484;SDS011;67773;50.806;8.776;2023-10-08T13:14:40;1.52;;;0.45;;
78484;SDS011;67773;50.806;8.776;2023-10-08T13:17:06;0.63;;;0.20;;
78484;SDS011;67773;50.806;8.776;2023-10-08T13:19:35;1.35;;;0.35;;
78484;SDS011;67773;50.806;8.776;2023-10-08T13:22:01;2.00;;;0.30;;
78484;SDS011;67773;50.806;8.776;2023-10-08T13:24:31;1.00;;;0.32;;
78484;SDS011;67773;50.806;8.776;2023-10-08T13:26:57;3.28;;;0.60;;
78484;SDS011;67773;50.806;8.776;2023-10-08T13:29:23;4.05;;;0.98;;
78484;SDS011;67773;50.806;8.776;2023-10-08T13:31:51;1.58;;;0.25;;
78484;SDS011;67773;50.806;8.776;2023-10-08T13:34:19;4.28;;;0.63;;
78484;SDS011;67773;50.806;8.776;2023-10-08T13:36:46;2.10;;;0.50;;
78484;SDS011;67773;50.806;8.776;2023-10-08T13:39:14;1.83;;;0.50;;
78484;SDS011;67773;50.806;8.776;2023-10-08T13:41:43;1.63;;;0.57;;
78484;SDS011;67773;50.806;8.776;2023-10-08T13:44:12;1.98;;;0.32;;
78484;SDS011;67773;50.806;8.776;2023-10-08T13:46:38;0.93;;;0.38;;
78484;SDS011;67773;50.806;8.776;2023-10-08T13:49:08;1.15;;;0.30;;
78484;SDS011;67773;50.806;8.776;2023-10-08T13:51:35;1.02;;;0.40;;
78484;SDS011;67773;50.806;8.776;2023-10-08T13:54:03;1.95;;;0.50;;
78484;SDS011;67773;50.806;8.776;2023-10-08T13:56:32;3.22;;;0.43;;
78484;SDS011;67773;50.806;8.776;2023-10-08T13:58:58;2.20;;;0.45;;
78484;SDS011;67773;50.806;8.776;2023-10-08T14:01:37;1.77;;;0.50;;
78484;SDS011;67773;50.806;8.776;2023-10-08T14:04:03;5.07;;;0.80;;
78484;SDS011;67773;50.806;8.776;2023-10-08T14:06:35;1.92;;;0.40;;
78484;SDS011;67773;50.806;8.776;2023-10-08T14:09:13;1.65;;;0.30;;
78484;SDS011;67773;50.806;8.776;2023-10-08T14:11:45;2.83;;;0.40;;
78484;SDS011;67773;50.806;8.776;2023-10-08T14:14:11;3.53;;;0.45;;
78484;SDS011;67773;50.806;8.776;2023-10-08T14:16:38;3.55;;;0.50;;
78484;SDS011;67773;50.806;8.776;2023-10-08T14:19:07;1.23;;;0.30;;
78484;SDS011;67773;50.806;8.776;2023-10-08T14:21:34;2.42;;;0.60;;
78484;SDS011;67773;50.806;8.776;2023-10-08T14:24:08;1.65;;;0.35;;
78484;SDS011;67773;50.806;8.776;2023-10-08T14:26:40;1.38;;;0.65;;
78484;SDS011;67773;50.806;8.776;2023-10-08T14:29:06;3.38;;;0.50;;
78484;SDS011;67773;50.806;8.776;2023-10-08T14:31:40;4.00;;;0.73;;
78484;SDS011;67773;50.806;8.776;2023-10-08T14:34:07;1.15;;;0.35;;
78484;SDS011;67773;50.806;8.776;2023-10-08T14:36:42;2.70;;;0.82;;
78484;SDS011;67773;50.806;8.776;2023-10-08T14:39:26;3.58;;;0.60;;
78484;SDS011;67773;50.806;8.776;2023-10-08T14:42:10;1.42;;;0.30;;
78484;SDS011;67773;50.806;8.776;2023-10-08T14:44:54;1.77;;;0.35;;
78484;SDS011;67773;50.806;8.776;2023-10-08T14:47:19;1.60;;;0.50;;
78484;SDS011;67773;50.806;8.776;2023-10-08T14:49:45;3.38;;;0.90;;
78484;SDS011;67773;50.806;8.776;2023-10-08T14:52:13;1.48;;;0.30;;
78484;SDS011;67773;50.806;8.776;2023-10-08T14:54:38;5.17;;;0.90;;
78484;SDS011;67773;50.806;8.776;2023-10-08T14:57:04;0.82;;;0.25;;
78484;SDS011;67773;50.806;8.776;2023-10-08T14:59:30;3.92;;;0.75;;
78484;SDS011;67773;50.806;8.776;2023-10-08T15:01:57;2.38;;;0.50;;
78484;SDS011;67773;50.806;8.776;2023-10-08T15:04:23;2.78;;;0.60;;
78484;SDS011;67773;50.806;8.776;2023-10-08T15:06:53;2.28;;;1.02;;
78484;SDS011;67773;50.806;8.776;2023-10-08T15:09:21;2.60;;;0.90;;
78484;SDS011;67773;50.806;8.776;2023-10-08T15:11:48;1.50;;;0.80;;
78484;SDS011;67773;50.806;8.776;2023-10-08T15:14:18;2.50;;;0.80;;
78484;SDS011;67773;50.806;8.776;2023-10-08T15:16:48;3.55;;;0.93;;